Time;durP1;ratioP1;P1;durP2;ratioP2;P2;SDS_P1;SDS_P2;PMS_P1;PMS_P2;Temp;Humidity;BMP_temperature;BMP_pressure;BME280_temperature;BME280_humidity;BME280_pressure;Samples;Min_cycle;Max_cycle;Signal;HPM_P1;HPM_P2
2022/09/23 00:01:19;;;;;;;4.70;2.90;;;12.80;92.10;;;;;;4964527;28;20027;-76
2022/09/23 00:03:47;;;;;;;6.88;2.72;;;12.80;92.20;;;;;;4962238;28;20139;-75
2022/09/23 00:06:17;;;;;;;5.78;3.20;;;12.70;92.20;;;;;;4965133;28;20018;-75
2022/09/23 00:08:43;;;;;;;8.32;3.20;;;12.70;92.30;;;;;;4959885;28;20043;-75
2022/09/23 00:11:14;;;;;;;5.00;2.90;;;12.70;92.40;;;;;;4961991;28;20022;-74
2022/09/23 00:13:43;;;;;;;6.30;2.97;;;12.70;92.40;;;;;;4962902;28;20140;-75
2022/09/23 00:16:14;;;;;;;9.43;3.70;;;12.70;92.40;;;;;;4962913;28;20030;-73
2022/09/23 00:18:43;;;;;;;6.18;3.40;;;12.70;92.50;;;;;;4962908;28;20826;-74
2022/09/23 00:21:12;;;;;;;10.45;3.17;;;12.70;92.50;;;;;;4964071;28;20035;-75
2022/09/23 00:23:39;;;;;;;5.63;3.47;;;12.70;92.50;;;;;;4961410;28;20030;-75
2022/09/23 00:26:07;;;;;;;4.80;3.28;;;12.80;92.50;;;;;;4964546;28;20090;-75
2022/09/23 00:28:34;;;;;;;5.18;3.10;;;12.70;92.50;;;;;;4962089;28;20030;-74
2022/09/23 00:31:05;;;;;;;4.13;3.13;;;12.70;92.60;;;;;;4961620;28;20031;-75
2022/09/23 00:33:31;;;;;;;9.40;2.80;;;12.70;92.60;;;;;;4967177;28;20046;-75
2022/09/23 00:36:01;;;;;;;5.50;3.53;;;12.70;92.70;;;;;;4964302;28;20054;-75
2022/09/23 00:38:28;;;;;;;9.27;3.00;;;12.70;92.80;;;;;;4962054;28;20034;-74
2022/09/23 00:40:53;;;;;;;7.18;3.22;;;12.70;92.80;;;;;;4963496;28;20106;-74
2022/09/23 00:43:19;;;;;;;6.50;3.10;;;12.70;92.70;;;;;;4961835;28;20102;-75
2022/09/23 00:45:49;;;;;;;4.55;3.35;;;12.70;92.90;;;;;;4960069;28;20038;-75
2022/09/23 00:48:19;;;;;;;7.28;3.25;;;12.60;92.90;;;;;;4964231;28;20053;-75
2022/09/23 00:50:50;;;;;;;7.60;3.58;;;12.60;92.90;;;;;;4961993;28;20030;-74
2022/09/23 00:53:21;;;;;;;5.55;3.45;;;12.60;93.00;;;;;;4967823;28;20047;-74
2022/09/23 00:55:53;;;;;;;9.73;4.03;;;12.60;93.20;;;;;;4959777;28;20431;-74
2022/09/23 00:58:24;;;;;;;5.57;3.40;;;12.60;93.20;;;;;;4960063;28;20034;-74
2022/09/23 01:00:54;;;;;;;10.40;3.20;;;12.70;93.20;;;;;;4960932;28;20027;-74
2022/09/23 01:03:21;;;;;;;6.00;3.38;;;12.70;93.20;;;;;;4959942;28;20087;-75
2022/09/23 01:05:52;;;;;;;6.38;3.50;;;12.70;93.20;;;;;;4960097;28;20085;-73
2022/09/23 01:08:19;;;;;;;11.55;3.33;;;12.70;93.20;;;;;;4975899;28;20118;-74
2022/09/23 01:11:10;;;;;;;7.78;3.65;;;12.70;93.20;;;;;;4964422;28;20023;-74
2022/09/23 01:13:53;;;;;;;6.95;3.08;;;12.70;93.30;;;;;;4964478;28;20840;-74
2022/09/23 01:16:24;;;;;;;;;;;12.70;93.60;;;;;;4960153;28;20564;-74
2022/09/23 01:19:25;;;;;;;8.00;3.38;;;12.60;93.30;;;;;;4966176;28;19914;-75
2022/09/23 01:22:26;;;;;;;9.10;3.70;;;12.60;93.40;;;;;;4965884;28;20515;-75
2022/09/23 01:25:07;;;;;;;6.65;2.97;;;12.60;93.20;;;;;;4961231;28;20051;-74
2022/09/23 01:28:00;;;;;;;3.50;2.95;;;12.60;93.30;;;;;;4961706;28;20404;-76
2022/09/23 01:30:43;;;;;;;;;;;12.70;93.40;;;;;;4964552;28;20121;-73
2022/09/23 01:33:16;;;;;;;11.63;3.60;;;12.60;93.30;;;;;;4965174;28;19910;-74
2022/09/23 01:35:44;;;;;;;5.93;3.50;;;12.60;93.40;;;;;;4964331;28;20034;-74
2022/09/23 01:38:12;;;;;;;10.00;4.10;;;12.60;93.50;;;;;;4966795;28;20110;-75
2022/09/23 01:41:02;;;;;;;5.95;3.45;;;12.60;93.60;;;;;;4967709;28;20126;-74
2022/09/23 01:43:56;;;;;;;6.72;3.50;;;12.60;93.60;;;;;;4969578;28;20041;-75
2022/09/23 01:46:28;;;;;;;7.95;3.60;;;12.60;93.60;;;;;;4967529;28;20396;-74
2022/09/23 01:49:09;;;;;;;8.17;3.47;;;12.60;93.60;;;;;;4964655;28;20069;-74
2022/09/23 01:51:42;;;;;;;12.85;4.05;;;12.60;93.50;;;;;;4966367;28;20042;-74
2022/09/23 01:54:18;;;;;;;5.65;3.08;;;12.60;93.50;;;;;;4969648;28;20617;-74
2022/09/23 01:56:55;;;;;;;7.88;3.17;;;12.60;93.50;;;;;;4967426;28;20110;-75
2022/09/23 01:59:31;;;;;;;11.40;4.35;;;12.60;93.50;;;;;;4958547;28;20417;-75
2022/09/23 02:02:03;;;;;;;8.10;3.70;;;12.70;93.50;;;;;;4963285;28;20034;-74
2022/09/23 02:04:44;;;;;;;8.85;3.83;;;12.60;93.40;;;;;;4965583;28;20129;-73
2022/09/23 02:07:24;;;;;;;9.52;3.88;;;12.70;93.60;;;;;;4964843;28;20146;-75
2022/09/23 02:10:03;;;;;;;13.43;4.03;;;12.60;93.60;;;;;;4960751;28;20109;-75
2022/09/23 02:12:32;;;;;;;7.88;3.65;;;12.60;93.70;;;;;;4962305;28;20023;-74
2022/09/23 02:15:13;;;;;;;14.15;4.32;;;12.60;93.80;;;;;;4963552;28;20113;-74
2022/09/23 02:17:46;;;;;;;11.75;3.92;;;12.60;93.70;;;;;;4958994;28;20051;-74
2022/09/23 02:20:14;;;;;;;;;;;12.60;93.70;;;;;;4966642;28;20026;-72
2022/09/23 02:23:00;;;;;;;8.63;3.70;;;12.60;93.60;;;;;;4966976;28;19969;-75
2022/09/23 02:25:37;;;;;;;7.55;3.78;;;12.60;93.50;;;;;;4967566;28;20400;-75
2022/09/23 02:28:12;;;;;;;11.75;4.35;;;12.50;93.70;;;;;;4964849;28;20111;-74
2022/09/23 02:30:48;;;;;;;8.38;4.18;;;12.50;93.80;;;;;;4954911;28;20027;-74
2022/09/23 02:33:23;;;;;;;8.52;4.30;;;12.50;93.70;;;;;;4955250;28;20046;-75
2022/09/23 02:35:55;;;;;;;7.72;3.72;;;12.50;93.90;;;;;;4964572;28;20029;-74
2022/09/23 02:38:45;;;;;;;8.23;3.78;;;12.40;93.90;;;;;;4965459;28;20026;-75
2022/09/23 02:41:36;;;;;;;12.32;4.38;;;12.40;94.10;;;;;;4960377;28;20034;-76
2022/09/23 02:44:07;;;;;;;12.13;3.55;;;12.40;93.80;;;;;;4967974;28;20045;-75
2022/09/23 02:46:34;;;;;;;7.43;3.80;;;12.40;94.10;;;;;;4964419;28;20039;-74
2022/09/23 02:49:10;;;;;;;6.75;4.00;;;12.30;94.00;;;;;;4961165;28;20118;-75
2022/09/23 02:51:37;;;;;;;7.40;4.10;;;12.40;94.20;;;;;;4968271;28;20023;-74
2022/09/23 02:54:06;;;;;;;10.23;4.40;;;12.30;94.30;;;;;;4961948;28;20069;-75
2022/09/23 02:56:32;;;;;;;13.73;4.15;;;12.30;94.40;;;;;;4965920;28;20065;-74
2022/09/23 02:58:58;;;;;;;7.57;3.83;;;12.30;94.40;;;;;;4961556;28;20027;-74
2022/09/23 03:01:55;;;;;;;9.85;3.83;;;12.30;94.60;;;;;;4964927;28;20054;-75
2022/09/23 03:04:33;;;;;;;16.50;4.18;;;12.20;94.20;;;;;;4943220;28;20093;-75
2022/09/23 03:07:01;;;;;;;6.53;3.92;;;12.20;94.70;;;;;;4963868;28;20033;-75
2022/09/23 03:09:58;;;;;;;8.93;3.92;;;12.10;94.90;;;;;;4963566;28;20065;-75
2022/09/23 03:12:31;;;;;;;9.07;3.55;;;12.10;94.70;;;;;;4959315;28;20114;-74
2022/09/23 03:15:18;;;;;;;10.00;4.40;;;12.10;94.90;;;;;;4962601;28;20034;-75
2022/09/23 03:18:04;;;;;;;10.60;4.57;;;12.10;94.80;;;;;;4975141;28;20063;-74
2022/09/23 03:20:41;;;;;;;11.05;4.00;;;12.10;95.10;;;;;;4958781;28;20038;-75
2022/09/23 03:23:09;;;;;;;7.47;4.22;;;12.10;95.00;;;;;;4964147;28;20020;-75
2022/09/23 03:25:39;;;;;;;10.75;4.13;;;12.10;95.30;;;;;;4961943;28;20089;-75
2022/09/23 03:28:07;;;;;;;11.95;3.95;;;12.00;95.30;;;;;;4966228;28;20054;-75
2022/09/23 03:30:37;;;;;;;9.85;4.57;;;12.00;95.00;;;;;;4961806;28;20031;-75
2022/09/23 03:33:06;;;;;;;8.82;3.92;;;12.10;95.40;;;;;;4963242;28;20205;-75
2022/09/23 03:36:48;;;;;;;15.48;5.85;;;12.10;95.30;;;;;;4960950;28;20040;-75
2022/09/23 03:38:27;;;;;;;18.70;5.43;;;12.10;95.20;;;;;;4962895;28;20038;-75
2022/09/23 03:40:57;;;;;;;10.27;4.55;;;12.10;95.30;;;;;;4963919;28;20038;-76
2022/09/23 03:43:22;;;;;;;15.52;4.78;;;12.10;95.30;;;;;;4961009;28;20178;-74
2022/09/23 03:45:52;;;;;;;9.13;4.45;;;12.10;95.30;;;;;;4966567;28;20513;-75
2022/09/23 03:48:17;;;;;;;8.23;4.15;;;12.10;95.30;;;;;;4959681;28;20137;-75
2022/09/23 03:50:43;;;;;;;9.30;3.80;;;12.10;95.30;;;;;;4965475;28;20078;-75
2022/09/23 03:53:12;;;;;;;9.32;3.95;;;12.10;95.20;;;;;;4964435;28;20014;-75
2022/09/23 03:55:38;;;;;;;6.85;3.90;;;12.10;95.30;;;;;;4980949;28;20104;-75
2022/09/23 03:58:03;;;;;;;14.30;4.43;;;12.10;95.40;;;;;;4965241;28;20034;-75
2022/09/23 04:00:29;;;;;;;7.40;4.20;;;12.00;95.40;;;;;;4962836;28;20101;-74
2022/09/23 04:02:56;;;;;;;10.25;3.92;;;12.10;95.30;;;;;;4969992;28;20687;-75
2022/09/23 04:05:21;;;;;;;6.07;3.92;;;12.00;95.20;;;;;;4962539;28;20034;-75
2022/09/23 04:07:48;;;;;;;11.07;3.70;;;12.10;95.50;;;;;;4958151;28;20023;-75
2022/09/23 04:10:16;;;;;;;6.32;3.65;;;12.00;95.40;;;;;;4961276;28;20015;-74
2022/09/23 04:12:43;;;;;;;5.13;3.45;;;12.00;95.40;;;;;;4969851;28;20031;-75
2022/09/23 04:15:12;;;;;;;9.77;3.92;;;12.00;95.40;;;;;;4964206;28;20023;-75
2022/09/23 04:17:42;;;;;;;10.50;4.40;;;12.00;95.40;;;;;;4966595;28;20042;-75
2022/09/23 04:20:08;;;;;;;8.60;3.90;;;12.00;95.40;;;;;;4963288;28;20388;-75
2022/09/23 04:22:37;;;;;;;14.27;4.28;;;11.90;95.30;;;;;;4964688;28;20030;-75
2022/09/23 04:25:03;;;;;;;8.18;3.53;;;12.00;95.30;;;;;;4964494;28;20487;-76
2022/09/23 04:27:29;;;;;;;8.93;3.90;;;12.00;95.30;;;;;;4960775;28;20023;-74
2022/09/23 04:29:54;;;;;;;12.55;3.90;;;12.00;95.40;;;;;;4971113;28;20097;-75
2022/09/23 04:32:23;;;;;;;10.25;4.57;;;12.00;95.30;;;;;;4968778;28;20031;-76
2022/09/23 04:34:51;;;;;;;9.15;4.35;;;12.00;95.40;;;;;;4967917;28;20468;-76
2022/09/23 04:37:19;;;;;;;13.90;4.22;;;12.00;95.40;;;;;;4969019;28;20038;-75
2022/09/23 04:39:45;;;;;;;16.38;4.43;;;12.00;95.50;;;;;;4961577;28;20053;-75
2022/09/23 04:42:10;;;;;;;9.00;4.20;;;11.90;95.60;;;;;;4963049;28;20476;-75
2022/09/23 04:44:37;;;;;;;14.35;4.10;;;11.90;95.50;;;;;;4960314;28;20455;-75
2022/09/23 04:47:03;;;;;;;13.77;4.57;;;11.90;95.50;;;;;;4963439;28;20432;-75
2022/09/23 04:49:31;;;;;;;14.73;5.13;;;11.90;95.50;;;;;;4960698;28;20041;-74
2022/09/23 04:51:56;;;;;;;9.30;4.22;;;11.90;95.60;;;;;;4961754;28;20019;-75
2022/09/23 04:54:22;;;;;;;9.40;4.20;;;12.00;95.60;;;;;;4966315;28;20552;-75
2022/09/23 04:56:48;;;;;;;11.18;4.30;;;11.90;95.30;;;;;;4962580;28;20030;-76
2022/09/23 04:59:13;;;;;;;9.95;4.22;;;12.00;95.40;;;;;;4967732;28;20047;-75
2022/09/23 05:01:39;;;;;;;13.82;4.30;;;11.90;95.30;;;;;;4971735;28;20034;-75
2022/09/23 05:04:08;;;;;;;12.02;5.00;;;12.00;95.60;;;;;;4968755;28;20446;-74
2022/09/23 05:06:35;;;;;;;14.20;4.43;;;11.90;95.50;;;;;;4965817;28;20035;-76
2022/09/23 05:09:04;;;;;;;9.90;4.50;;;12.00;95.50;;;;;;4964076;28;20027;-76
2022/09/23 05:11:30;;;;;;;15.18;4.43;;;12.00;95.40;;;;;;4969368;28;20042;-75
2022/09/23 05:13:57;;;;;;;13.05;4.47;;;11.90;95.50;;;;;;4970847;28;20031;-74
2022/09/23 05:16:23;;;;;;;6.78;4.38;;;12.00;95.60;;;;;;4965740;28;20051;-75
2022/09/23 05:18:50;;;;;;;15.32;4.63;;;11.90;95.40;;;;;;4964554;28;20027;-74
2022/09/23 05:21:22;;;;;;;8.02;3.80;;;12.00;95.50;;;;;;4966224;28;20345;-75
2022/09/23 05:23:53;;;;;;;17.15;4.20;;;12.00;95.60;;;;;;4968018;28;20456;-75
2022/09/23 05:26:24;;;;;;;10.52;4.25;;;12.00;95.50;;;;;;4970037;28;20093;-76
2022/09/23 05:28:50;;;;;;;12.38;4.30;;;12.00;95.40;;;;;;4965803;28;20523;-75
2022/09/23 05:31:24;;;;;;;8.27;4.05;;;12.00;95.60;;;;;;4960277;28;20110;-75
2022/09/23 05:34:04;;;;;;;10.85;3.75;;;12.00;95.70;;;;;;4964453;28;20025;-75
2022/09/23 05:36:34;;;;;;;12.20;4.75;;;12.00;95.80;;;;;;4983024;28;20023;-75
2022/09/23 05:39:00;;;;;;;8.70;4.35;;;12.00;95.80;;;;;;4961986;28;20114;-75
2022/09/23 05:41:26;;;;;;;11.70;4.38;;;12.00;95.90;;;;;;4970734;28;20130;-76
2022/09/23 05:43:54;;;;;;;8.35;3.83;;;12.00;95.90;;;;;;4963650;28;20093;-75
2022/09/23 05:46:22;;;;;;;14.80;4.60;;;12.00;95.70;;;;;;4961002;28;20106;-75
2022/09/23 05:48:48;;;;;;;12.27;4.40;;;12.00;95.80;;;;;;4962604;28;20031;-75
2022/09/23 05:51:18;;;;;;;10.98;4.00;;;12.10;95.80;;;;;;4965960;28;20455;-74
2022/09/23 05:53:45;;;;;;;13.85;3.90;;;12.10;96.10;;;;;;4964959;28;20028;-75
2022/09/23 05:56:16;;;;;;;14.27;4.47;;;12.20;95.50;;;;;;4964098;28;20019;-75
2022/09/23 05:58:42;;;;;;;11.77;4.32;;;12.20;95.40;;;;;;4964432;28;20027;-76
2022/09/23 06:01:20;;;;;;;6.03;3.55;;;12.30;95.40;;;;;;4971618;28;20031;-76
2022/09/23 06:03:49;;;;;;;7.60;4.40;;;12.40;95.40;;;;;;4978244;28;20113;-75
2022/09/23 06:06:17;;;;;;;9.10;3.75;;;12.40;95.40;;;;;;4971864;28;20460;-75
2022/09/23 06:08:43;;;;;;;7.93;3.58;;;12.50;95.40;;;;;;4966633;28;20027;-76
2022/09/23 06:11:10;;;;;;;8.93;3.70;;;12.60;95.30;;;;;;4960402;28;20073;-76
2022/09/23 06:13:37;;;;;;;6.18;3.72;;;12.60;95.10;;;;;;4966133;28;20026;-75
2022/09/23 06:16:11;;;;;;;9.77;3.15;;;12.80;95.00;;;;;;4962254;28;20023;-75
2022/09/23 06:18:39;;;;;;;5.18;2.92;;;12.70;94.90;;;;;;4965476;28;20039;-76
2022/09/23 06:21:09;;;;;;;6.85;3.35;;;12.80;94.80;;;;;;4971748;28;20462;-76
2022/09/23 06:23:37;;;;;;;11.82;3.90;;;12.90;94.60;;;;;;4967632;28;20737;-75
2022/09/23 06:26:07;;;;;;;5.70;3.53;;;12.90;94.50;;;;;;4967226;28;20121;-76
2022/09/23 06:28:35;;;;;;;5.63;3.38;;;13.10;94.80;;;;;;4962518;28;20031;-75
2022/09/23 06:31:02;;;;;;;6.55;3.78;;;13.20;94.50;;;;;;4980751;28;20369;-75
2022/09/23 06:33:29;;;;;;;11.13;3.22;;;13.30;94.30;;;;;;4965770;28;20686;-76
2022/09/23 06:36:00;;;;;;;8.35;3.33;;;13.30;94.30;;;;;;4964669;28;20027;-75
2022/09/23 06:38:26;;;;;;;6.57;3.80;;;13.30;94.10;;;;;;4966764;28;20035;-75
2022/09/23 06:40:54;;;;;;;8.88;3.22;;;13.40;94.00;;;;;;4970621;28;20353;-75
2022/09/23 06:43:24;;;;;;;8.00;3.55;;;13.30;94.10;;;;;;4967568;28;20058;-74
2022/09/23 06:45:53;;;;;;;6.55;3.42;;;13.30;94.10;;;;;;4964876;28;20035;-75
2022/09/23 06:48:20;;;;;;;7.53;3.42;;;13.40;94.10;;;;;;4968084;28;20839;-76
2022/09/23 06:50:48;;;;;;;6.85;3.60;;;13.30;94.30;;;;;;4966736;28;20061;-75
2022/09/23 06:53:13;;;;;;;6.15;3.80;;;13.40;94.40;;;;;;4964337;28;20019;-75
2022/09/23 06:55:40;;;;;;;6.10;3.67;;;13.50;94.50;;;;;;4965917;28;20031;-75
2022/09/23 06:58:06;;;;;;;6.53;3.22;;;13.60;94.40;;;;;;4962801;28;20034;-75
2022/09/23 07:00:32;;;;;;;7.22;3.83;;;13.80;94.30;;;;;;4958420;28;20043;-74
2022/09/23 07:02:58;;;;;;;9.95;4.18;;;13.90;94.00;;;;;;4963020;28;20728;-76
2022/09/23 07:05:23;;;;;;;9.23;3.75;;;14.10;93.90;;;;;;4964590;28;20034;-75
2022/09/23 07:07:49;;;;;;;6.45;3.60;;;14.10;93.70;;;;;;4967188;28;20529;-77
2022/09/23 07:10:15;;;;;;;8.27;4.00;;;14.20;93.70;;;;;;4966979;28;20050;-75
2022/09/23 07:12:46;;;;;;;5.93;4.07;;;14.30;93.60;;;;;;4961955;28;20035;-76
2022/09/23 07:15:14;;;;;;;7.32;4.15;;;14.40;93.40;;;;;;4967151;28;20038;-75
2022/09/23 07:17:41;;;;;;;9.10;4.03;;;14.50;93.40;;;;;;4964436;28;20468;-76
2022/09/23 07:20:08;;;;;;;7.88;4.47;;;14.50;93.00;;;;;;4962772;28;20022;-75
2022/09/23 07:22:34;;;;;;;9.02;4.63;;;14.50;93.10;;;;;;4968692;28;20030;-76
2022/09/23 07:25:00;;;;;;;9.10;4.60;;;14.50;93.30;;;;;;4966053;28;20031;-77
2022/09/23 07:27:26;;;;;;;13.55;4.50;;;14.50;93.20;;;;;;4967066;28;20034;-75
2022/09/23 07:29:53;;;;;;;11.57;4.70;;;14.60;93.40;;;;;;4959288;28;20059;-75
2022/09/23 07:32:21;;;;;;;11.07;4.53;;;14.50;93.30;;;;;;4958406;28;20023;-74
2022/09/23 07:34:47;;;;;;;16.05;5.25;;;14.60;93.30;;;;;;4959862;28;20540;-75
2022/09/23 07:37:15;;;;;;;9.77;4.88;;;14.60;93.20;;;;;;4963548;28;20015;-77
2022/09/23 07:39:42;;;;;;;11.02;5.38;;;14.60;93.00;;;;;;4963589;28;20094;-76
2022/09/23 07:42:07;;;;;;;13.52;5.07;;;14.50;93.20;;;;;;4962526;28;20031;-76
2022/09/23 07:44:33;;;;;;;12.90;4.85;;;14.60;93.40;;;;;;4963122;28;20153;-74
2022/09/23 07:47:00;;;;;;;8.85;4.63;;;14.80;93.20;;;;;;4963142;28;20038;-74
2022/09/23 07:49:27;;;;;;;11.77;4.57;;;14.90;93.10;;;;;;4966238;28;20022;-74
2022/09/23 07:51:53;;;;;;;12.82;4.68;;;14.90;93.00;;;;;;4960901;28;20448;-74
2022/09/23 07:54:19;;;;;;;7.93;5.32;;;14.80;92.90;;;;;;4967482;28;20066;-73
2022/09/23 07:56:45;;;;;;;7.50;4.68;;;14.70;93.30;;;;;;4961051;28;20423;-74
2022/09/23 07:59:14;;;;;;;13.10;5.65;;;14.90;93.40;;;;;;4966925;28;20114;-74
2022/09/23 08:01:51;;;;;;;7.43;5.22;;;15.00;93.20;;;;;;4963644;28;20624;-73
2022/09/23 08:04:29;;;;;;;14.07;5.10;;;15.10;93.00;;;;;;4967773;28;20128;-73
2022/09/23 08:06:59;;;;;;;14.57;5.18;;;15.10;92.80;;;;;;4962865;28;20035;-73
2022/09/23 08:09:30;;;;;;;6.40;4.80;;;15.20;92.70;;;;;;4961568;28;20031;-75
2022/09/23 08:11:56;;;;;;;15.20;4.95;;;15.10;92.50;;;;;;4961834;28;20424;-75
2022/09/23 08:14:25;;;;;;;14.77;4.75;;;15.00;92.50;;;;;;4960733;28;20479;-75
2022/09/23 08:16:51;;;;;;;15.57;5.18;;;15.20;92.50;;;;;;4977466;28;20023;-78
2022/09/23 08:19:17;;;;;;;11.85;4.60;;;15.30;92.30;;;;;;4961292;28;20038;-73
2022/09/23 08:21:46;;;;;;;6.13;4.50;;;15.50;92.40;;;;;;4962324;28;20027;-74
2022/09/23 08:24:17;;;;;;;11.70;4.68;;;15.40;92.00;;;;;;4965533;28;20081;-73
2022/09/23 08:26:44;;;;;;;11.05;4.75;;;15.40;92.20;;;;;;4964512;28;20035;-76
2022/09/23 08:29:15;;;;;;;7.70;4.68;;;15.60;92.20;;;;;;4962992;28;20432;-75
2022/09/23 08:31:41;;;;;;;13.38;5.63;;;15.70;92.10;;;;;;4963573;28;20037;-75
2022/09/23 08:34:07;;;;;;;10.20;4.60;;;15.90;91.90;;;;;;4962555;28;20031;-76
2022/09/23 08:36:36;;;;;;;8.25;4.38;;;16.20;91.30;;;;;;4964356;28;20038;-74
2022/09/23 08:39:02;;;;;;;6.43;4.30;;;16.50;91.30;;;;;;4980207;28;20019;-73
2022/09/23 08:41:48;;;;;;;9.30;4.65;;;16.80;90.60;;;;;;4965034;28;20038;-74
2022/09/23 08:44:36;;;;;;;7.80;4.82;;;16.80;89.60;;;;;;4964701;28;20018;-74
2022/09/23 08:47:09;;;;;;;11.13;4.85;;;16.90;88.60;;;;;;4964233;28;20126;-74
2022/09/23 08:49:38;;;;;;;;;;;17.20;88.40;;;;;;4960833;28;20118;-74
2022/09/23 08:52:15;;;;;;;8.70;4.20;;;17.50;87.20;;;;;;4962713;28;19932;-74
2022/09/23 08:54:41;;;;;;;8.35;4.18;;;17.80;85.60;;;;;;4966890;28;20401;-75
2022/09/23 08:57:17;;;;;;;7.38;4.20;;;18.00;84.30;;;;;;4961329;28;20031;-75
2022/09/23 08:59:48;;;;;;;9.10;4.20;;;18.20;84.90;;;;;;4967472;28;20042;-74
2022/09/23 09:02:18;;;;;;;10.10;4.07;;;18.40;82.60;;;;;;4976839;28;20039;-74
2022/09/23 09:04:48;;;;;;;9.20;4.30;;;18.50;82.50;;;;;;4961859;28;20031;-74
2022/09/23 09:07:20;;;;;;;6.30;3.88;;;18.80;80.50;;;;;;4969826;28;20027;-74
2022/09/23 09:09:53;;;;;;;6.00;3.97;;;18.70;80.30;;;;;;4966670;28;20592;-75
2022/09/23 09:12:41;;;;;;;5.95;3.65;;;18.80;79.70;;;;;;4963630;28;20030;-74
2022/09/23 09:15:19;;;;;;;6.05;3.60;;;18.80;78.60;;;;;;4963983;28;20019;-77
2022/09/23 09:18:06;;;;;;;7.38;3.40;;;18.80;78.60;;;;;;4963890;28;20050;-74
2022/09/23 09:20:41;;;;;;;7.20;3.58;;;18.30;77.70;;;;;;4967265;28;20033;-78
2022/09/23 09:23:34;;;;;;;77.35;29.33;;;17.90;78.70;;;;;;4968523;28;20030;-74
2022/09/23 09:26:01;;;;;;;7.20;3.40;;;18.10;80.10;;;;;;4961345;28;20043;-76
2022/09/23 09:28:46;;;;;;;13.07;3.85;;;18.20;79.00;;;;;;4962928;28;20023;-76
2022/09/23 09:31:39;;;;;;;4.22;3.33;;;18.10;78.70;;;;;;4966837;28;20022;-76
2022/09/23 09:34:29;;;;;;;11.45;3.67;;;18.00;78.90;;;;;;4960506;28;20134;-76
2022/09/23 09:37:05;;;;;;;5.45;3.20;;;18.00;79.90;;;;;;4964529;28;20076;-76
2022/09/23 09:39:34;;;;;;;5.35;3.58;;;18.30;79.10;;;;;;4966958;28;20046;-74
2022/09/23 09:42:03;;;;;;;11.15;3.10;;;18.20;79.40;;;;;;4972913;28;20085;-75
2022/09/23 09:44:49;;;;;;;7.97;3.50;;;18.40;78.30;;;;;;4971410;28;20449;-75
2022/09/23 09:47:27;;;;;;;10.10;3.85;;;18.50;77.10;;;;;;4969013;28;20039;-75
2022/09/23 09:50:04;;;;;;;5.43;3.40;;;18.50;77.00;;;;;;4967581;28;20023;-75
2022/09/23 09:52:30;;;;;;;7.95;3.78;;;18.60;77.50;;;;;;4971326;28;20037;-75
2022/09/23 09:55:16;;;;;;;9.43;3.97;;;18.50;77.60;;;;;;4967579;28;20110;-75
2022/09/23 09:57:41;;;;;;;7.03;3.35;;;18.80;78.30;;;;;;4964049;28;20401;-77
2022/09/23 10:00:41;;;;;;;6.07;3.80;;;19.10;76.50;;;;;;4965005;28;20031;-74
2022/09/23 10:03:13;;;;;;;5.65;3.60;;;19.40;76.10;;;;;;4958174;28;20039;-76
2022/09/23 10:05:45;;;;;;;6.38;3.13;;;19.60;74.80;;;;;;4962790;28;20031;-76
2022/09/23 10:08:31;;;;;;;11.98;3.78;;;19.70;75.20;;;;;;4963272;28;20365;-76
2022/09/23 10:11:16;;;;;;;5.57;3.45;;;20.00;74.50;;;;;;4978304;28;20031;-75
2022/09/23 10:14:13;;;;;;;8.27;4.13;;;20.20;73.00;;;;;;4959777;28;20019;-75
2022/09/23 10:16:40;;;;;;;9.18;4.15;;;20.30;72.70;;;;;;4979064;28;20031;-73
2022/09/23 10:19:23;;;;;;;8.43;4.13;;;20.10;72.80;;;;;;4968800;28;20114;-74
2022/09/23 10:21:55;;;;;;;6.72;4.15;;;20.00;73.10;;;;;;4977855;28;20027;-75
2022/09/23 10:24:28;;;;;;;7.72;3.42;;;20.00;73.20;;;;;;4961840;28;20131;-76
2022/09/23 10:27:07;;;;;;;11.25;3.80;;;20.30;74.00;;;;;;4966678;28;20070;-74
2022/09/23 10:29:37;;;;;;;7.57;4.10;;;20.50;73.10;;;;;;4965840;28;20045;-76
2022/09/23 10:32:25;;;;;;;8.85;3.78;;;20.80;72.40;;;;;;4963805;28;20105;-74
2022/09/23 10:34:54;;;;;;;247.27;110.00;;;21.10;72.10;;;;;;4977837;28;20030;-74
2022/09/23 10:37:39;;;;;;;7.97;4.88;;;21.30;71.20;;;;;;4961474;28;20061;-74
2022/09/23 10:49:32;;;;;;;6.30;4.22;;;22.40;67.00;;;;;;4966732;28;20515;-75
2022/09/23 10:52:15;;;;;;;7.25;3.95;;;22.30;66.20;;;;;;4967119;28;20107;-76
2022/09/23 10:54:53;;;;;;;7.78;4.47;;;22.30;67.10;;;;;;4965877;28;20027;-76
2022/09/23 10:57:44;;;;;;;5.82;4.45;;;22.50;65.70;;;;;;4974395;28;20396;-76
2022/09/23 11:00:22;;;;;;;4.93;4.10;;;22.70;65.50;;;;;;4964650;28;20053;-76
2022/09/23 11:02:59;;;;;;;8.20;4.40;;;22.80;64.70;;;;;;4965833;28;20018;-75
2022/09/23 11:05:34;;;;;;;5.88;4.50;;;22.80;64.00;;;;;;4963084;28;20030;-75
2022/09/23 11:08:00;;;;;;;8.45;4.85;;;22.90;65.00;;;;;;4964312;28;20022;-75
2022/09/23 11:10:48;;;;;;;8.48;4.47;;;22.70;64.10;;;;;;4970434;28;20122;-77
2022/09/23 11:13:20;;;;;;;9.82;5.13;;;22.40;64.80;;;;;;4962028;28;20024;-76
2022/09/23 11:16:04;;;;;;;12.90;7.15;;;22.30;66.00;;;;;;4975984;28;20033;-74
2022/09/23 11:19:02;;;;;;;10.07;5.18;;;22.10;66.40;;;;;;4959353;28;20140;-73
2022/09/23 11:21:43;;;;;;;83.53;38.38;;;22.20;66.70;;;;;;4978155;28;20085;-75
2022/09/23 11:24:32;;;;;;;6.60;4.35;;;22.30;66.80;;;;;;4962262;28;20023;-76
2022/09/23 11:27:09;;;;;;;4.30;3.85;;;22.30;67.20;;;;;;4964268;28;20126;-76
2022/09/23 11:30:03;;;;;;;7.85;4.82;;;22.20;66.30;;;;;;4962751;28;20042;-76
2022/09/23 11:32:42;;;;;;;7.25;5.00;;;22.00;67.30;;;;;;4963090;28;20100;-75
2022/09/23 11:35:42;;;;;;;9.95;4.45;;;21.80;67.50;;;;;;4962146;28;20179;-76
2022/09/23 11:38:13;;;;;;;8.32;3.83;;;21.80;67.70;;;;;;4968079;28;20034;-73
2022/09/23 11:40:44;;;;;;;6.53;3.60;;;21.40;67.90;;;;;;4962911;28;20130;-77
2022/09/23 11:43:22;;;;;;;11.32;3.92;;;21.60;68.50;;;;;;4964295;28;20027;-74
2022/09/23 11:46:05;;;;;;;7.65;4.47;;;21.60;69.80;;;;;;4960755;28;20035;-73
2022/09/23 11:48:40;;;;;;;7.25;4.03;;;21.70;67.70;;;;;;4959128;28;20668;-76
2022/09/23 11:51:47;;;;;;;9.30;4.20;;;21.70;68.00;;;;;;4960821;28;20038;-77
2022/09/23 11:54:25;;;;;;;7.88;3.95;;;21.80;67.70;;;;;;4961478;28;20113;-76
2022/09/23 11:56:59;;;;;;;7.65;3.78;;;21.60;67.00;;;;;;4962087;28;20035;-75
2022/09/23 11:59:27;;;;;;;6.53;4.43;;;21.60;67.40;;;;;;4966343;28;20130;-76
2022/09/23 12:02:08;;;;;;;5.30;3.83;;;21.70;67.60;;;;;;4963128;28;20034;-76
2022/09/23 12:04:38;;;;;;;6.85;4.07;;;21.70;67.70;;;;;;4963403;28;20030;-75
2022/09/23 12:07:07;;;;;;;5.75;4.00;;;21.60;67.50;;;;;;4961803;28;20460;-76
2022/09/23 12:09:45;;;;;;;9.25;4.25;;;21.40;67.50;;;;;;4963056;28;20022;-76
2022/09/23 12:12:17;;;;;;;6.22;4.22;;;21.70;67.80;;;;;;4960389;28;20019;-75
2022/09/23 12:15:19;;;;;;;8.95;3.35;;;22.00;65.70;;;;;;4963060;28;20027;-75
2022/09/23 12:17:54;;;;;;;7.75;3.40;;;21.90;64.40;;;;;;4959747;28;20035;-76
2022/09/23 12:20:27;;;;;;;5.65;3.05;;;21.80;64.00;;;;;;4959441;28;20380;-77
2022/09/23 12:23:02;;;;;;;7.35;3.92;;;21.80;63.90;;;;;;4964327;28;20337;-74
2022/09/23 12:25:55;;;;;;;8.68;3.22;;;21.80;65.40;;;;;;4962093;28;20498;-76
2022/09/23 12:28:28;;;;;;;4.38;3.30;;;21.80;65.30;;;;;;4961280;28;20023;-75
2022/09/23 12:31:00;;;;;;;10.00;3.45;;;22.00;64.30;;;;;;4964462;28;20134;-76
2022/09/23 12:33:29;;;;;;;4.93;3.55;;;22.00;63.90;;;;;;4966202;28;20333;-75
2022/09/23 12:36:00;;;;;;;7.90;3.63;;;21.90;64.30;;;;;;4959349;28;20015;-76
2022/09/23 12:38:48;;;;;;;6.60;3.58;;;22.10;62.90;;;;;;4975339;28;20110;-76
2022/09/23 12:41:52;;;;;;;7.55;3.42;;;22.20;62.20;;;;;;4962016;28;20023;-76
2022/09/23 12:44:48;;;;;;;4.35;2.78;;;22.50;63.30;;;;;;4958493;28;20054;-76
2022/09/23 12:47:14;;;;;;;8.85;3.13;;;22.80;60.20;;;;;;4954561;28;20051;-76
2022/09/23 12:49:41;;;;;;;4.97;3.45;;;22.90;60.10;;;;;;4961377;28;20147;-76
2022/09/23 12:52:15;;;;;;;9.60;4.10;;;22.80;60.20;;;;;;4961029;28;20078;-76
2022/09/23 12:54:49;;;;;;;8.00;4.40;;;23.00;61.40;;;;;;4962671;28;20316;-75
2022/09/23 12:57:33;;;;;;;10.48;3.70;;;23.20;60.10;;;;;;4966329;28;20030;-74
2022/09/23 13:00:10;;;;;;;6.95;3.80;;;22.90;60.60;;;;;;4964099;28;20345;-76
2022/09/23 13:08:39;;;;;;;4.18;3.45;;;22.30;59.90;;;;;;4962785;28;20041;-75
2022/09/23 13:11:12;;;;;;;7.13;3.85;;;22.50;60.90;;;;;;4957857;28;20467;-75
2022/09/23 13:13:40;;;;;;;;;;;22.50;60.90;;;;;;4962559;28;20045;-75
2022/09/23 13:16:35;;;;;;;8.15;3.53;;;22.60;61.40;;;;;;4962850;28;20018;-75
2022/09/23 13:19:02;;;;;;;6.15;3.47;;;22.60;61.00;;;;;;4964731;28;20551;-76
2022/09/23 13:21:43;;;;;;;4.38;3.50;;;22.60;61.40;;;;;;4967165;28;20480;-76
2022/09/23 13:24:12;;;;;;;5.63;3.30;;;22.50;61.30;;;;;;4964673;28;20089;-75
2022/09/23 13:26:58;;;;;;;4.35;3.88;;;22.30;61.00;;;;;;4968744;28;20033;-76
2022/09/23 13:29:50;;;;;;;4.70;3.53;;;21.80;61.90;;;;;;4953546;28;20058;-75
2022/09/23 13:32:18;;;;;;;6.65;3.75;;;21.40;62.90;;;;;;4953954;28;20039;-75